Tolar, New Mexico
Current Conditions -  °F | °C
As of 9:56 PM on Saturday 22 Nov 2014 (Local Time) from K4MR Reporting Station
Broken Clouds Broken Clouds  
Wind Chill: 11°   Ceiling: 22000
Heat Index: 11°   Visibility: 10mi
Dew Point: -8°   Wind: 25mph
Humidity: 27%   Direction: 220°SW
Pressure: 29.72"   Gusts: NA
Location:  34.3861°N, 104.044°W
Report Text: K4MR 230456Z AUTO 22022KT 10SM BKN220 11/M08 A2972 RMK AO2 PK WND 22030/30 SLP033 T01081077
Loading
Personal Weather Stations






























Interactive Weather Map New forecast layout! Learn more

10-Day Weather Forecast

Advertisements
Track Severe Weather on mobile